createdAt,value
2023-09-08T00:01:12.841Z,23.41
2023-09-08T00:03:40.813Z,23.40
2023-09-08T00:06:09.166Z,23.39
2023-09-08T00:08:37.353Z,23.39
2023-09-08T00:11:06.466Z,23.40
2023-09-08T00:13:34.572Z,23.39
2023-09-08T00:16:03.269Z,23.36
2023-09-08T00:18:31.315Z,23.31
2023-09-08T00:20:59.636Z,23.28
2023-09-08T00:23:29.583Z,23.30
2023-09-08T00:26:00.021Z,23.29
2023-09-08T00:28:28.203Z,23.34
2023-09-08T00:30:56.463Z,23.38
2023-09-08T00:33:24.405Z,23.38
2023-09-08T00:35:54.857Z,23.39
2023-09-08T00:38:23.124Z,23.38
2023-09-08T00:40:51.515Z,23.39
2023-09-08T00:43:19.676Z,23.41
2023-09-08T00:45:49.180Z,23.42
2023-09-08T00:48:17.401Z,23.45
2023-09-08T00:50:46.292Z,23.43
2023-09-08T00:53:15.232Z,23.42
2023-09-08T00:55:43.784Z,23.41
2023-09-08T00:58:12.991Z,23.36
2023-09-08T01:00:41.388Z,23.36
2023-09-08T01:03:09.427Z,23.36
2023-09-08T01:05:38.754Z,23.33
2023-09-08T01:08:08.058Z,23.34
2023-09-08T01:10:38.398Z,23.34
2023-09-08T01:13:06.337Z,23.33
2023-09-08T01:15:35.909Z,23.29
2023-09-08T01:18:04.104Z,23.26
2023-09-08T01:20:50.245Z,23.26
2023-09-08T01:23:53.834Z,23.22
2023-09-08T01:26:27.891Z,23.20
2023-09-08T01:28:56.920Z,23.25
2023-09-08T01:31:25.920Z,23.24
2023-09-08T01:33:54.036Z,23.25
2023-09-08T01:36:22.491Z,23.26
2023-09-08T01:38:50.453Z,23.29
2023-09-08T01:41:18.857Z,23.29
2023-09-08T01:43:46.885Z,23.28
2023-09-08T01:46:15.294Z,23.26
2023-09-08T01:48:43.720Z,23.27
2023-09-08T01:51:13.100Z,23.32
2023-09-08T01:53:42.387Z,23.32
2023-09-08T01:56:12.285Z,23.29
2023-09-08T01:58:40.171Z,23.33
2023-09-08T02:01:09.128Z,23.33
2023-09-08T02:03:37.110Z,23.29
2023-09-08T02:06:06.733Z,23.28
2023-09-08T02:08:34.853Z,23.20
2023-09-08T02:11:03.156Z,23.20
2023-09-08T02:13:32.182Z,23.21
2023-09-08T02:16:01.203Z,23.20
2023-09-08T02:18:30.225Z,23.23
2023-09-08T02:20:58.700Z,23.23
2023-09-08T02:23:27.376Z,23.24
2023-09-08T02:25:55.777Z,23.23
2023-09-08T02:28:23.716Z,23.24
2023-09-08T02:30:56.113Z,23.25
2023-09-08T02:33:24.507Z,23.23
2023-09-08T02:35:53.233Z,23.25
2023-09-08T02:38:21.577Z,23.24
2023-09-08T02:40:50.244Z,23.23
2023-09-08T02:43:18.235Z,23.21
2023-09-08T02:45:48.612Z,23.20
2023-09-08T02:48:17.788Z,23.16
2023-09-08T02:50:46.124Z,23.16
2023-09-08T02:53:13.957Z,23.14
2023-09-08T02:55:42.474Z,23.07
2023-09-08T02:58:10.448Z,23.16
2023-09-08T03:00:38.686Z,23.17
2023-09-08T03:03:06.956Z,23.20
2023-09-08T03:05:35.875Z,23.18
2023-09-08T03:08:06.530Z,23.18
2023-09-08T03:10:38.044Z,23.19
2023-09-08T03:13:06.433Z,23.21
2023-09-08T03:15:36.062Z,23.22
2023-09-08T03:18:04.326Z,23.23
2023-09-08T03:20:32.710Z,23.24
2023-09-08T03:23:00.590Z,23.27
2023-09-08T03:25:29.098Z,23.30
2023-09-08T03:27:56.957Z,23.32
2023-09-08T03:30:25.353Z,23.16
2023-09-08T03:32:53.619Z,23.15
2023-09-08T03:35:21.917Z,23.17
2023-09-08T03:37:50.007Z,23.18
2023-09-08T03:40:18.443Z,23.21
2023-09-08T03:42:47.082Z,23.17
2023-09-08T03:45:15.342Z,23.17
2023-09-08T03:47:43.490Z,23.22
2023-09-08T03:50:12.028Z,23.32
2023-09-08T03:52:39.900Z,23.31
2023-09-08T03:55:11.469Z,23.35
2023-09-08T03:57:39.619Z,23.30
2023-09-08T04:00:08.982Z,23.40
2023-09-08T04:02:42.615Z,23.40
2023-09-08T04:05:12.119Z,23.51
2023-09-08T04:07:40.482Z,23.51
2023-09-08T04:10:09.488Z,23.48
2023-09-08T04:12:37.557Z,23.54
2023-09-08T04:15:06.240Z,23.57
2023-09-08T04:17:34.847Z,23.60
2023-09-08T04:20:07.226Z,23.57
2023-09-08T04:22:35.746Z,23.61
2023-09-08T04:25:07.019Z,23.52
2023-09-08T04:27:40.121Z,23.65
2023-09-08T04:30:09.531Z,23.65
2023-09-08T04:32:39.082Z,23.67
2023-09-08T04:35:08.879Z,23.72
2023-09-08T04:37:38.566Z,23.77
2023-09-08T04:40:08.883Z,23.65
2023-09-08T04:42:37.652Z,23.71
2023-09-08T04:45:07.532Z,23.69
2023-09-08T04:47:36.634Z,23.77
2023-09-08T04:50:05.286Z,23.81
2023-09-08T04:52:33.265Z,23.82
2023-09-08T04:55:03.616Z,23.85
2023-09-08T04:57:32.725Z,23.81
2023-09-08T05:00:01.410Z,23.83
2023-09-08T05:02:35.576Z,23.86
2023-09-08T05:05:05.856Z,23.93
2023-09-08T05:07:34.191Z,23.78
2023-09-08T05:10:02.791Z,23.83
2023-09-08T05:12:36.089Z,23.87
2023-09-08T05:15:11.746Z,23.86
2023-09-08T05:17:42.293Z,23.77
2023-09-08T05:20:11.713Z,23.72
2023-09-08T05:22:40.432Z,23.67
2023-09-08T05:25:09.852Z,23.61
2023-09-08T05:27:38.138Z,23.47
2023-09-08T05:30:10.843Z,23.52
2023-09-08T05:32:40.139Z,23.63
2023-09-08T05:35:08.809Z,23.69
2023-09-08T05:37:36.840Z,23.64
2023-09-08T05:40:06.519Z,23.74
2023-09-08T05:42:34.667Z,23.81
2023-09-08T05:45:02.923Z,23.84
2023-09-08T05:47:32.832Z,23.87
2023-09-08T05:50:01.191Z,23.90
2023-09-08T05:52:34.489Z,24.00
2023-09-08T05:55:04.260Z,24.05
2023-09-08T05:57:32.951Z,24.10
2023-09-08T06:00:01.318Z,24.16
2023-09-08T06:02:32.873Z,24.16
2023-09-08T06:05:01.505Z,24.25
2023-09-08T06:07:31.526Z,24.40
2023-09-08T06:09:59.876Z,24.50
2023-09-08T06:12:28.047Z,24.50
2023-09-08T06:14:56.621Z,24.58
2023-09-08T06:17:24.680Z,24.64
2023-09-08T06:19:53.640Z,24.44
2023-09-08T06:22:21.830Z,24.50
2023-09-08T06:24:50.972Z,24.63
2023-09-08T06:27:19.049Z,24.73
2023-09-08T06:29:47.449Z,24.59
2023-09-08T06:32:16.628Z,24.75
2023-09-08T06:34:48.176Z,24.81
2023-09-08T06:37:16.423Z,24.74
2023-09-08T06:39:45.078Z,24.84
2023-09-08T06:42:12.986Z,24.84
2023-09-08T06:44:49.706Z,24.84
2023-09-08T06:47:18.120Z,25.06
2023-09-08T06:49:46.696Z,25.17
2023-09-08T06:52:14.795Z,25.24
2023-09-08T06:54:43.606Z,25.05
2023-09-08T06:57:12.518Z,25.21
2023-09-08T06:59:41.077Z,25.43
2023-09-08T07:02:09.521Z,25.44
2023-09-08T07:04:38.080Z,25.46
2023-09-08T07:07:08.620Z,25.52
2023-09-08T07:09:39.382Z,25.39
2023-09-08T07:12:10.067Z,25.57
2023-09-08T07:14:39.787Z,25.69
2023-09-08T07:17:07.765Z,25.76
2023-09-08T07:19:36.415Z,25.72
2023-09-08T07:22:04.584Z,25.83
2023-09-08T07:24:33.178Z,25.72
2023-09-08T07:27:02.134Z,25.71
2023-09-08T07:29:31.119Z,25.75
2023-09-08T07:31:59.741Z,25.74
2023-09-08T07:34:28.616Z,25.74
2023-09-08T07:36:56.694Z,25.71
2023-09-08T07:39:25.197Z,25.61
2023-09-08T07:41:54.779Z,25.56
2023-09-08T07:44:23.533Z,25.61
2023-09-08T07:46:52.857Z,25.59
2023-09-08T07:49:21.553Z,25.58
2023-09-08T07:51:49.645Z,25.65
2023-09-08T07:54:20.511Z,25.64
2023-09-08T07:56:48.974Z,25.67
2023-09-08T07:59:17.757Z,25.66
2023-09-08T08:01:45.741Z,25.64
2023-09-08T08:04:14.160Z,25.61
2023-09-08T08:06:42.359Z,25.61
2023-09-08T08:09:11.735Z,25.63
2023-09-08T08:11:39.837Z,25.68
2023-09-08T08:14:08.243Z,25.66
2023-09-08T08:16:37.142Z,25.72
2023-09-08T08:19:05.606Z,25.75
2023-09-08T08:21:33.667Z,25.73
2023-09-08T08:24:02.310Z,25.75
2023-09-08T08:26:34.213Z,25.80
2023-09-08T08:29:02.945Z,25.87
2023-09-08T08:31:34.590Z,25.77
2023-09-08T08:34:03.072Z,25.65
2023-09-08T08:36:31.192Z,25.52
2023-09-08T08:38:59.709Z,25.48
2023-09-08T08:41:28.252Z,25.55
2023-09-08T08:43:57.534Z,25.71
2023-09-08T08:46:27.645Z,25.69
2023-09-08T08:48:56.240Z,25.74
2023-09-08T08:51:24.976Z,25.67
2023-09-08T08:53:53.491Z,25.65
2023-09-08T08:56:21.924Z,25.61
2023-09-08T08:58:51.932Z,25.71
2023-09-08T09:01:21.549Z,25.78
2023-09-08T09:03:51.586Z,25.80
2023-09-08T09:06:20.526Z,25.89
2023-09-08T09:08:48.763Z,25.89
2023-09-08T09:11:17.429Z,26.00
2023-09-08T09:13:49.009Z,26.07
2023-09-08T09:16:17.132Z,26.22
2023-09-08T09:19:01.154Z,26.26
2023-09-08T09:21:56.580Z,26.21
2023-09-08T09:24:38.495Z,26.04
2023-09-08T09:27:09.609Z,26.21
2023-09-08T09:29:48.786Z,26.27
2023-09-08T09:32:18.159Z,26.42
2023-09-08T09:34:51.566Z,26.31
2023-09-08T09:37:20.503Z,26.43
2023-09-08T09:39:55.098Z,26.54
2023-09-08T09:42:23.359Z,26.60
2023-09-08T09:44:53.502Z,26.64
2023-09-08T09:47:22.714Z,26.57
2023-09-08T09:49:51.233Z,26.48
2023-09-08T09:52:24.511Z,26.51
2023-09-08T09:54:58.118Z,26.53
2023-09-08T09:57:26.971Z,26.57
2023-09-08T09:59:56.337Z,26.66
2023-09-08T10:02:24.812Z,26.75
2023-09-08T10:04:55.378Z,26.84
2023-09-08T10:07:24.543Z,26.80
2023-09-08T10:09:53.691Z,26.85
2023-09-08T10:12:22.087Z,26.86
2023-09-08T10:14:54.973Z,26.83
2023-09-08T10:17:31.518Z,26.86
2023-09-08T10:20:03.019Z,26.90
2023-09-08T10:22:34.176Z,26.89
2023-09-08T10:25:07.270Z,26.81
2023-09-08T10:27:38.458Z,26.68
2023-09-08T10:30:09.060Z,26.61
2023-09-08T10:32:38.400Z,26.65
2023-09-08T10:35:08.172Z,26.62
2023-09-08T10:37:36.263Z,26.59
2023-09-08T10:40:24.023Z,26.50
2023-09-08T10:43:08.151Z,26.47
2023-09-08T10:45:37.347Z,26.44
2023-09-08T10:48:05.412Z,26.40
2023-09-08T10:50:40.335Z,26.37
2023-09-08T10:53:14.285Z,26.33
2023-09-08T10:56:10.716Z,26.28
2023-09-08T10:58:44.645Z,26.16
2023-09-08T11:01:24.051Z,26.10
2023-09-08T11:03:53.178Z,26.00
2023-09-08T11:06:25.601Z,25.96
2023-09-08T11:08:57.725Z,25.89
2023-09-08T11:11:28.683Z,25.80
2023-09-08T11:13:56.713Z,25.74
2023-09-08T11:16:30.939Z,25.73
2023-09-08T11:18:59.583Z,25.59
2023-09-08T11:21:28.376Z,25.57
2023-09-08T11:23:57.272Z,25.57
2023-09-08T11:26:25.709Z,25.52
2023-09-08T11:28:54.976Z,25.54
2023-09-08T11:31:23.539Z,25.48
2023-09-08T11:33:56.603Z,25.49
2023-09-08T11:36:24.977Z,25.55
2023-09-08T11:38:55.276Z,25.54
2023-09-08T11:41:25.305Z,25.46
2023-09-08T11:43:53.931Z,25.38
2023-09-08T11:46:23.062Z,25.39
2023-09-08T11:48:51.610Z,25.43
2023-09-08T11:51:24.982Z,25.50
2023-09-08T11:53:53.534Z,25.44
2023-09-08T11:56:21.813Z,25.47
2023-09-08T11:58:50.196Z,25.55
2023-09-08T12:01:19.462Z,25.59
2023-09-08T12:03:57.446Z,25.64
2023-09-08T12:06:30.009Z,25.67
2023-09-08T12:09:04.164Z,25.80
2023-09-08T12:11:36.599Z,25.85
2023-09-08T12:14:10.977Z,25.74
2023-09-08T12:16:40.659Z,25.71
2023-09-08T12:19:35.039Z,25.77
2023-09-08T12:22:05.249Z,25.74
2023-09-08T12:24:58.706Z,25.67
2023-09-08T12:27:28.071Z,25.68
2023-09-08T12:30:03.285Z,25.67
2023-09-08T12:32:37.888Z,25.66
2023-09-08T12:35:06.410Z,25.66
2023-09-08T12:37:35.488Z,25.68
2023-09-08T12:40:03.729Z,25.66
2023-09-08T12:42:37.585Z,25.67
2023-09-08T12:45:10.955Z,25.66
2023-09-08T12:47:40.550Z,25.66
2023-09-08T12:50:10.071Z,25.77
2023-09-08T12:52:38.489Z,25.82
2023-09-08T12:55:07.152Z,25.86
2023-09-08T12:57:37.079Z,25.89
2023-09-08T13:00:06.091Z,25.83
2023-09-08T13:02:40.686Z,25.59
2023-09-08T13:05:09.523Z,25.53
2023-09-08T13:07:37.850Z,25.37
2023-09-08T13:10:08.713Z,25.32
2023-09-08T13:12:37.247Z,25.25
2023-09-08T13:15:05.831Z,25.17
2023-09-08T13:17:35.521Z,25.13
2023-09-08T13:20:04.704Z,25.10
2023-09-08T13:22:33.145Z,25.10
2023-09-08T13:25:01.236Z,24.98
2023-09-08T13:27:32.268Z,24.94
2023-09-08T13:30:17.136Z,24.85
2023-09-08T13:32:46.458Z,24.81
2023-09-08T13:35:14.757Z,24.72
2023-09-08T13:37:43.842Z,24.57
2023-09-08T13:40:12.227Z,24.54
2023-09-08T13:42:40.588Z,24.55
2023-09-08T13:45:09.273Z,24.48
2023-09-08T13:47:40.135Z,24.47
2023-09-08T13:50:11.103Z,24.43
2023-09-08T13:52:43.610Z,24.45
2023-09-08T13:55:34.364Z,24.43
2023-09-08T13:58:02.132Z,24.35
2023-09-08T14:00:31.909Z,24.26
2023-09-08T14:03:06.665Z,24.19
2023-09-08T14:05:37.319Z,24.12
2023-09-08T14:08:16.493Z,24.12
2023-09-08T14:13:17.546Z,23.98
2023-09-08T14:15:45.937Z,23.91
2023-09-08T14:18:15.568Z,23.87
2023-09-08T14:20:44.314Z,23.82
2023-09-08T14:23:12.681Z,23.75
2023-09-08T14:25:40.674Z,23.50
2023-09-08T14:28:11.405Z,23.38
2023-09-08T14:30:39.545Z,23.25
2023-09-08T14:33:08.998Z,23.12
2023-09-08T14:35:37.113Z,23.19
2023-09-08T14:38:07.363Z,23.15
2023-09-08T14:40:35.376Z,23.25
2023-09-08T14:43:04.384Z,23.22
2023-09-08T14:45:32.462Z,23.22
2023-09-08T14:48:01.920Z,23.22
2023-09-08T14:50:30.295Z,23.08
2023-09-08T14:52:58.606Z,23.00
2023-09-08T14:55:26.901Z,22.97
2023-09-08T14:57:58.285Z,22.95
2023-09-08T15:00:28.423Z,23.02
2023-09-08T15:02:57.026Z,22.99
2023-09-08T15:05:24.895Z,22.92
2023-09-08T15:07:53.242Z,22.99
2023-09-08T15:10:21.423Z,23.00
2023-09-08T15:12:49.705Z,22.97
2023-09-08T15:15:19.865Z,22.94
2023-09-08T15:17:49.066Z,22.94
2023-09-08T15:20:16.983Z,22.93
2023-09-08T15:22:45.404Z,22.97
2023-09-08T15:25:14.418Z,22.97
2023-09-08T15:27:45.284Z,22.92
2023-09-08T15:30:15.233Z,22.90
2023-09-08T15:32:43.793Z,22.94
2023-09-08T15:35:11.734Z,23.01
2023-09-08T15:37:42.527Z,22.86
2023-09-08T15:40:15.642Z,22.87
2023-09-08T15:42:44.813Z,22.86
2023-09-08T15:45:13.000Z,22.84
2023-09-08T15:47:41.282Z,22.88
2023-09-08T15:50:10.376Z,22.82
2023-09-08T15:52:38.616Z,22.80
2023-09-08T15:55:06.990Z,22.81
2023-09-08T15:57:35.416Z,22.80
2023-09-08T16:00:04.428Z,22.80
2023-09-08T16:02:37.189Z,22.72
2023-09-08T16:05:06.098Z,22.76
2023-09-08T16:07:34.454Z,22.74
2023-09-08T16:10:02.461Z,22.62
2023-09-08T16:12:33.048Z,22.67
2023-09-08T16:15:00.964Z,22.61
2023-09-08T16:17:30.224Z,22.67
2023-09-08T16:19:58.177Z,22.68
2023-09-08T16:22:26.997Z,22.71
2023-09-08T16:24:55.562Z,22.68
2023-09-08T16:27:23.514Z,22.67
2023-09-08T16:29:52.019Z,22.71
2023-09-08T16:32:21.479Z,22.51
2023-09-08T16:34:50.985Z,22.44
2023-09-08T16:37:19.018Z,22.47
2023-09-08T16:39:47.441Z,22.52
2023-09-08T16:42:15.375Z,22.54
2023-09-08T16:44:44.861Z,22.43
2023-09-08T16:47:12.995Z,22.46
2023-09-08T16:49:42.266Z,22.35
2023-09-08T16:52:10.182Z,22.31
2023-09-08T16:54:39.447Z,22.33
2023-09-08T16:57:07.478Z,22.34
2023-09-08T16:59:36.174Z,22.44
2023-09-08T17:02:04.458Z,22.37
2023-09-08T17:04:37.218Z,22.35
2023-09-08T17:07:10.735Z,22.42
2023-09-08T17:09:39.364Z,22.43
2023-09-08T17:12:08.571Z,22.37
2023-09-08T17:14:51.310Z,22.38
2023-09-08T17:17:19.250Z,22.39
2023-09-08T17:19:47.577Z,22.48
2023-09-08T17:22:15.964Z,22.54
2023-09-08T17:28:20.171Z,22.55
2023-09-08T17:31:41.165Z,22.41
2023-09-08T17:34:20.121Z,22.60
2023-09-08T17:36:53.106Z,22.58
2023-09-08T17:39:21.262Z,22.57
2023-09-08T17:41:50.022Z,22.57
2023-09-08T17:44:18.029Z,22.56
2023-09-08T17:46:48.006Z,22.53
2023-09-08T17:49:16.210Z,22.51
2023-09-08T17:51:45.010Z,22.50
2023-09-08T17:54:13.350Z,22.48
2023-09-08T17:56:41.758Z,22.50
2023-09-08T17:59:10.570Z,22.47
2023-09-08T18:01:53.365Z,22.39
2023-09-08T18:04:23.326Z,22.47
2023-09-08T18:06:51.795Z,22.48
2023-09-08T18:09:20.582Z,22.44
2023-09-08T18:11:49.421Z,22.44
2023-09-08T18:14:18.041Z,22.24
2023-09-08T18:16:46.260Z,22.07
2023-09-08T18:19:14.916Z,22.00
2023-09-08T18:21:44.408Z,21.91
2023-09-08T18:24:12.723Z,22.10
2023-09-08T18:26:40.615Z,22.17
2023-09-08T18:29:09.297Z,22.23
2023-09-08T18:31:37.266Z,22.26
2023-09-08T18:34:06.090Z,22.34
2023-09-08T18:36:34.261Z,22.31
2023-09-08T18:39:02.593Z,22.22
2023-09-08T18:41:30.590Z,22.19
2023-09-08T18:44:00.927Z,22.00
2023-09-08T18:46:29.059Z,21.87
2023-09-08T18:48:57.552Z,21.88
2023-09-08T18:51:25.639Z,21.83
2023-09-08T18:53:56.074Z,21.73
2023-09-08T18:56:24.324Z,21.76
2023-09-08T18:58:52.580Z,21.82
2023-09-08T19:01:20.663Z,21.72
2023-09-08T19:03:49.387Z,21.74
2023-09-08T19:06:19.612Z,21.69
2023-09-08T19:08:47.984Z,21.68
2023-09-08T19:11:17.309Z,21.71
2023-09-08T19:14:24.307Z,21.69
2023-09-08T19:16:54.983Z,21.67
2023-09-08T19:19:23.423Z,21.67
2023-09-08T19:21:51.905Z,21.53
2023-09-08T19:24:21.157Z,21.50
2023-09-08T19:26:50.240Z,21.52
2023-09-08T19:29:22.904Z,21.52
2023-09-08T19:31:50.972Z,21.51
2023-09-08T19:34:19.998Z,21.56
2023-09-08T19:36:47.909Z,21.57
2023-09-08T19:39:16.299Z,21.56
2023-09-08T19:41:44.191Z,21.57
2023-09-08T19:44:12.494Z,21.61
2023-09-08T19:46:40.606Z,21.71
2023-09-08T19:49:09.327Z,21.79
2023-09-08T19:51:37.437Z,21.77
2023-09-08T19:54:05.865Z,21.65
2023-09-08T19:56:33.710Z,21.74
2023-09-08T19:59:04.879Z,21.78
2023-09-08T20:01:32.917Z,21.72
2023-09-08T20:04:01.670Z,21.72
2023-09-08T20:06:29.818Z,21.65
2023-09-08T20:08:58.209Z,21.70
2023-09-08T20:11:26.138Z,21.63
2023-09-08T20:13:55.428Z,21.68
2023-09-08T20:16:23.517Z,21.51
2023-09-08T20:18:52.023Z,21.54
2023-09-08T20:21:19.949Z,21.30
2023-09-08T20:23:48.356Z,21.12
2023-09-08T20:26:16.308Z,20.99
2023-09-08T20:28:47.389Z,21.18
2023-09-08T20:31:18.926Z,21.07
2023-09-08T20:33:48.119Z,21.04
2023-09-08T20:36:16.217Z,21.10
2023-09-08T20:38:44.960Z,21.13
2023-09-08T20:41:13.833Z,21.04
2023-09-08T20:43:42.455Z,21.26
2023-09-08T20:46:10.439Z,21.34
2023-09-08T20:48:44.914Z,21.40
2023-09-08T20:51:14.499Z,21.41
2023-09-08T20:53:43.641Z,21.49
2023-09-08T20:56:12.199Z,21.42
2023-09-08T20:58:42.369Z,21.46
2023-09-08T21:01:11.206Z,21.52
2023-09-08T21:03:40.629Z,21.52
2023-09-08T21:06:11.155Z,21.47
2023-09-08T21:08:40.063Z,21.49
2023-09-08T21:11:08.970Z,21.56
2023-09-08T21:13:37.413Z,21.60
2023-09-08T21:16:05.873Z,21.59
2023-09-08T21:18:34.404Z,21.56
2023-09-08T21:21:02.366Z,21.60
2023-09-08T21:23:31.540Z,21.51
2023-09-08T21:25:59.735Z,21.55
2023-09-08T21:28:28.080Z,21.47
2023-09-08T21:31:09.032Z,21.47
2023-09-08T21:33:39.438Z,21.38
2023-09-08T21:36:08.953Z,21.32
2023-09-08T21:38:37.734Z,21.39
2023-09-08T21:41:11.015Z,21.46
2023-09-08T21:43:39.806Z,21.53
2023-09-08T21:46:09.992Z,21.52
2023-09-08T21:48:40.134Z,21.49
2023-09-08T21:51:10.200Z,21.42
2023-09-08T21:53:38.935Z,21.35
2023-09-08T21:56:07.391Z,21.36
2023-09-08T21:58:36.173Z,21.27
2023-09-08T22:01:04.728Z,21.38
2023-09-08T22:03:33.190Z,21.35
2023-09-08T22:06:01.495Z,21.44
2023-09-08T22:08:30.072Z,21.40
2023-09-08T22:11:06.353Z,21.45
2023-09-08T22:13:37.350Z,21.48
2023-09-08T22:16:06.235Z,21.46
2023-09-08T22:18:34.910Z,21.45
2023-09-08T22:21:06.018Z,21.53
2023-09-08T22:23:35.077Z,21.52
2023-09-08T22:26:04.305Z,21.56
2023-09-08T22:28:32.500Z,21.59
2023-09-08T22:31:00.552Z,21.58
2023-09-08T22:33:31.527Z,21.44
2023-09-08T22:35:59.919Z,21.36
2023-09-08T22:38:28.687Z,21.32
2023-09-08T22:40:56.625Z,21.29
2023-09-08T22:43:25.965Z,21.33
2023-09-08T22:45:54.928Z,21.28
2023-09-08T22:48:24.090Z,21.28
2023-09-08T22:50:52.216Z,21.20
2023-09-08T22:53:21.086Z,21.27
2023-09-08T22:55:49.822Z,21.02
2023-09-08T22:58:18.202Z,21.07
2023-09-08T23:00:46.109Z,21.07
2023-09-08T23:03:14.543Z,21.08
2023-09-08T23:05:45.233Z,21.22
2023-09-08T23:08:13.653Z,21.25
2023-09-08T23:10:41.781Z,21.24
2023-09-08T23:13:10.137Z,21.15
2023-09-08T23:15:38.312Z,21.11
2023-09-08T23:18:10.977Z,21.05
2023-09-08T23:20:42.423Z,21.12
2023-09-08T23:23:10.961Z,20.99
2023-09-08T23:25:39.024Z,21.06
2023-09-08T23:28:09.800Z,21.00
2023-09-08T23:30:38.115Z,21.02
2023-09-08T23:33:07.853Z,20.86
2023-09-08T23:35:35.868Z,20.96
2023-09-08T23:38:04.532Z,21.00
2023-09-08T23:40:32.992Z,21.06
2023-09-08T23:43:01.364Z,21.07
2023-09-08T23:45:29.733Z,20.95
2023-09-08T23:47:57.981Z,20.97
2023-09-08T23:50:50.510Z,20.76
2023-09-08T23:53:20.060Z,20.67
2023-09-08T23:55:50.111Z,20.62
2023-09-08T23:58:22.134Z,20.70
